Airfield :
LOGIN :

Register | Disclaimer

   EN    FR    IT 

 










Legend :    VFR   Marginal VFR   IFR   Intensive IFR   Very Intensive IFR
Visi :
Ceiling :
>= 8 km
>= 3000ft
5 to 8 km
1000 to 3000 ft
1500m to 5 km
500 to 1000 ft
800 to 1500m
200 to 500 ft
< 800m
< 200 ft
Symbols :   Thunderstorms  Fog  Heavy snow  Heavy precipitations  Wind > 20 kt
SIGMETs :     Misc.  Thunderstorms  Icing  Turbulence  Mountain Waves  Volcanic Ashes






- Airport Elevation : 257 ft
- IATA code : MAN


EGCC - Manchester

CURRENT METAR :
  • 250820Z AUTO 21003KT 170V250 7000 OVC009 01/M01 Q1034 NOSIG

EXPIRED METARs :
  • 250750Z AUTO 22003KT 7000 OVC009 01/M01 Q1033
  • 250720Z AUTO 21003KT 180V240 7000 OVC010 01/M01 Q1033
  • 250650Z AUTO VRB02KT 7000 OVC010 01/M00 Q1033
  • 250620Z AUTO 22003KT 6000 OVC010 01/M01 Q1033
  • 250550Z AUTO 23003KT 5000 HZ OVC010 01/M00 Q1033 TEMPO 4000 OVC009

TAF TAF EGCC
Valid from the 25 at 06:00 until the 26 at 12:00 UTC


250456Z 2506/2612 VRB02KT 6000 BKN010
TEMPO 2506/2510 4000 BR BKN008
BECMG 2510/2513 9999 BKN016
PROB40
TEMPO 2513/2518 8000 BKN012
TEMPO 2518/2612 BKN012
BECMG 2609/2612 23010KT
ATIS : +44 161 499 2324



MET'MAP, your aeronautical weather chart ! - Copyright ORBIFLY December 2007 - Disclaimer

ORBIFLY MET'MAP TEAM :

Programming & Development : Alexandra Zaïnal
Original concept : Baudouin d'Aumeries
Technical & hardware support : Manuel Goepfert
Assistance : Marc-Olivier Méhu

Contact : metmap@orbifly.com




SOURCES & CREDITS :

   NOAA